createdAt,value
2019-02-23T00:01:19.183Z,72.00
2019-02-23T00:03:48.583Z,72.04
2019-02-23T00:06:29.007Z,71.98
2019-02-23T00:08:48.943Z,72.21
2019-02-23T00:11:18.293Z,71.18
2019-02-23T00:13:47.638Z,71.08
2019-02-23T00:16:16.948Z,71.56
2019-02-23T00:18:46.238Z,71.85
2019-02-23T00:21:15.559Z,72.07
2019-02-23T00:23:44.895Z,72.26
2019-02-23T00:26:14.230Z,71.78
2019-02-23T00:28:43.572Z,71.85
2019-02-23T00:31:12.861Z,72.12
2019-02-23T00:33:42.176Z,72.39
2019-02-23T00:36:11.476Z,72.43
2019-02-23T00:38:40.775Z,71.95
2019-02-23T00:41:10.053Z,72.34
2019-02-23T00:43:39.347Z,72.16
2019-02-23T00:46:08.747Z,72.57
2019-02-23T00:48:38.061Z,72.14
2019-02-23T00:51:07.335Z,72.37
2019-02-23T00:53:36.673Z,72.71
2019-02-23T00:56:05.954Z,72.99
2019-02-23T00:58:35.250Z,73.09
2019-02-23T01:01:04.670Z,72.15
2019-02-23T01:03:34.037Z,72.79
2019-02-23T01:06:03.374Z,72.24
2019-02-23T01:08:32.709Z,73.10
2019-02-23T01:11:02.011Z,74.13
2019-02-23T01:13:31.346Z,72.14
2019-02-23T01:16:00.628Z,72.86
2019-02-23T01:18:29.963Z,72.31
2019-02-23T01:20:59.310Z,72.77
2019-02-23T01:23:28.636Z,73.70
2019-02-23T01:25:57.959Z,72.73
2019-02-23T01:28:27.237Z,72.12
2019-02-23T01:30:56.530Z,71.35
2019-02-23T01:33:25.839Z,71.59
2019-02-23T01:35:55.186Z,71.85
2019-02-23T01:38:24.482Z,71.09
2019-02-23T01:40:53.798Z,71.10
2019-02-23T01:43:23.071Z,70.78
2019-02-23T01:45:52.387Z,69.37
2019-02-23T01:48:21.658Z,69.48
2019-02-23T01:50:50.974Z,69.92
2019-02-23T01:53:20.243Z,70.14
2019-02-23T01:55:49.558Z,69.66
2019-02-23T01:58:18.917Z,69.04
2019-02-23T02:00:48.337Z,69.26
2019-02-23T02:03:17.644Z,70.00
2019-02-23T02:05:47.043Z,70.79
2019-02-23T02:08:16.311Z,69.61
2019-02-23T02:10:45.624Z,70.93
2019-02-23T02:13:14.926Z,70.03
2019-02-23T02:15:44.147Z,68.61
2019-02-23T02:18:13.460Z,70.87
2019-02-23T02:20:42.766Z,70.17
2019-02-23T02:23:12.095Z,69.89
2019-02-23T02:25:41.511Z,70.22
2019-02-23T02:28:10.859Z,69.52
2019-02-23T02:30:40.067Z,69.98
2019-02-23T02:33:09.401Z,70.42
2019-02-23T02:35:38.694Z,69.78
2019-02-23T02:38:07.990Z,70.66
2019-02-23T02:40:37.248Z,69.38
2019-02-23T02:43:06.517Z,69.39
2019-02-23T02:45:35.775Z,69.55
2019-02-23T02:48:05.069Z,70.50
2019-02-23T02:50:34.529Z,69.78
2019-02-23T02:53:03.913Z,68.96
2019-02-23T02:55:33.200Z,69.49
2019-02-23T02:58:02.552Z,69.25
2019-02-23T03:00:31.900Z,69.86
2019-02-23T03:03:01.205Z,69.80
2019-02-23T03:05:30.475Z,69.41
2019-02-23T03:07:59.780Z,69.34
2019-02-23T03:10:29.139Z,70.40
2019-02-23T03:12:58.405Z,69.65
2019-02-23T03:15:27.691Z,69.92
2019-02-23T03:17:56.971Z,69.37
2019-02-23T03:20:36.277Z,70.37
2019-02-23T03:22:57.238Z,69.60
2019-02-23T03:25:26.560Z,69.80
2019-02-23T03:27:55.829Z,70.39
2019-02-23T03:30:25.248Z,70.17
2019-02-23T03:32:54.494Z,70.08
2019-02-23T03:35:23.850Z,70.25
2019-02-23T03:37:53.125Z,70.35
2019-02-23T03:40:22.413Z,70.58
2019-02-23T03:42:51.674Z,71.39
2019-02-23T03:45:20.969Z,71.00
2019-02-23T03:47:50.231Z,69.75
2019-02-23T03:50:19.516Z,70.13
2019-02-23T03:52:48.830Z,70.15
2019-02-23T03:55:18.103Z,70.33
2019-02-23T03:57:47.382Z,70.23
2019-02-23T04:00:16.671Z,70.55
2019-02-23T04:02:46.008Z,70.13
2019-02-23T04:05:15.298Z,71.15
2019-02-23T04:07:44.553Z,70.96
2019-02-23T04:10:13.932Z,71.15
2019-02-23T04:12:43.178Z,70.07
2019-02-23T04:15:12.502Z,70.86
2019-02-23T04:17:41.758Z,70.76
2019-02-23T04:20:11.039Z,70.89
2019-02-23T04:22:40.341Z,70.90
2019-02-23T04:25:09.616Z,72.14
2019-02-23T04:27:38.918Z,71.46
2019-02-23T04:30:08.302Z,71.40
2019-02-23T04:32:37.601Z,71.77
2019-02-23T04:35:06.897Z,73.35
2019-02-23T04:37:36.171Z,72.63
2019-02-23T04:40:05.839Z,72.16
2019-02-23T04:42:35.145Z,72.09
2019-02-23T04:45:04.634Z,71.92
2019-02-23T04:47:33.930Z,72.69
2019-02-23T04:50:03.200Z,72.73
2019-02-23T04:52:32.463Z,72.52
2019-02-23T04:55:01.728Z,72.26
2019-02-23T04:57:31.024Z,71.59
2019-02-23T05:00:00.349Z,71.95
2019-02-23T05:02:29.746Z,72.00
2019-02-23T05:04:59.069Z,71.67
2019-02-23T05:07:28.342Z,72.36
2019-02-23T05:09:57.621Z,72.16
2019-02-23T05:12:28.229Z,71.96
2019-02-23T05:14:57.575Z,71.07
2019-02-23T05:17:26.858Z,71.18
2019-02-23T05:19:56.138Z,72.04
2019-02-23T05:22:25.417Z,72.21
2019-02-23T05:24:54.748Z,72.34
2019-02-23T05:27:24.049Z,73.09
2019-02-23T05:29:53.318Z,72.61
2019-02-23T05:32:22.641Z,73.15
2019-02-23T05:34:51.917Z,73.07
2019-02-23T05:37:21.233Z,71.55
2019-02-23T05:39:50.538Z,70.98
2019-02-23T05:42:19.847Z,71.06
2019-02-23T05:44:49.150Z,70.89
2019-02-23T05:47:18.408Z,71.91
2019-02-23T05:49:47.736Z,72.41
2019-02-23T05:52:16.992Z,72.51
2019-02-23T05:54:46.308Z,72.25
2019-02-23T05:57:15.614Z,72.67
2019-02-23T05:59:45.049Z,72.65
2019-02-23T06:02:14.392Z,72.62
2019-02-23T06:04:43.672Z,72.36
2019-02-23T06:07:12.994Z,72.42
2019-02-23T06:09:42.294Z,72.46
2019-02-23T06:12:11.607Z,71.94
2019-02-23T06:14:40.970Z,71.94
2019-02-23T06:17:10.271Z,72.39
2019-02-23T06:19:39.668Z,72.54
2019-02-23T06:22:08.950Z,72.70
2019-02-23T06:24:38.258Z,72.80
2019-02-23T06:27:07.555Z,72.65
2019-02-23T06:29:36.962Z,72.68
2019-02-23T06:32:06.235Z,72.66
2019-02-23T06:34:35.610Z,72.19
2019-02-23T06:37:04.977Z,70.62
2019-02-23T06:39:34.349Z,72.12
2019-02-23T06:42:03.630Z,73.77
2019-02-23T06:44:33.038Z,73.92
2019-02-23T06:47:02.369Z,73.37
2019-02-23T06:49:31.642Z,73.16
2019-02-23T06:52:04.227Z,73.57
2019-02-23T06:54:31.986Z,74.05
2019-02-23T06:57:01.356Z,73.34
2019-02-23T06:59:30.722Z,73.23
2019-02-23T07:02:00.150Z,73.80
2019-02-23T07:04:29.426Z,74.40
2019-02-23T07:06:58.753Z,74.42
2019-02-23T07:09:28.071Z,73.42
2019-02-23T07:11:57.456Z,73.23
2019-02-23T07:14:26.744Z,72.91
2019-02-23T07:16:56.047Z,72.99
2019-02-23T07:19:25.422Z,72.87
2019-02-23T07:21:54.734Z,72.32
2019-02-23T07:24:24.018Z,72.56
2019-02-23T07:26:53.318Z,72.94
2019-02-23T07:29:22.634Z,72.80
2019-02-23T07:31:51.962Z,72.77
2019-02-23T07:34:21.243Z,72.45
2019-02-23T07:36:50.520Z,72.72
2019-02-23T07:39:19.798Z,72.88
2019-02-23T07:41:49.110Z,72.62
2019-02-23T07:44:18.461Z,72.27
2019-02-23T07:46:47.934Z,71.68
2019-02-23T07:49:17.424Z,71.58
2019-02-23T07:51:46.727Z,70.74
2019-02-23T07:54:15.987Z,71.86
2019-02-23T07:56:45.324Z,71.10
2019-02-23T07:59:14.653Z,70.78
2019-02-23T08:01:44.158Z,70.16
2019-02-23T08:04:13.421Z,70.30
2019-02-23T08:06:42.688Z,69.02
2019-02-23T08:09:12.377Z,68.80
2019-02-23T08:11:41.816Z,68.00
2019-02-23T08:14:11.160Z,67.45
2019-02-23T08:16:40.446Z,67.87
2019-02-23T08:19:09.761Z,67.26
2019-02-23T08:21:39.077Z,66.57
2019-02-23T08:24:08.469Z,66.75
2019-02-23T08:26:37.811Z,66.13
2019-02-23T08:29:07.175Z,65.17
2019-02-23T08:31:36.524Z,65.51
2019-02-23T08:34:06.008Z,64.70
2019-02-23T08:36:35.438Z,63.95
2019-02-23T08:39:05.323Z,64.37
2019-02-23T08:41:34.641Z,64.59
2019-02-23T08:44:03.951Z,64.07
2019-02-23T08:46:33.293Z,63.50
2019-02-23T08:49:03.763Z,63.78
2019-02-23T08:51:33.029Z,63.16
2019-02-23T08:54:02.352Z,62.47
2019-02-23T08:56:34.009Z,62.36
2019-02-23T08:59:03.332Z,61.74
2019-02-23T09:01:32.725Z,61.53
2019-02-23T09:04:02.326Z,61.87
2019-02-23T09:06:31.945Z,60.55
2019-02-23T09:09:01.326Z,60.54
2019-02-23T09:11:33.693Z,58.94
2019-02-23T09:14:03.292Z,58.81
2019-02-23T09:16:32.794Z,58.39
2019-02-23T09:19:02.098Z,57.69
2019-02-23T09:21:32.988Z,57.17
2019-02-23T09:24:02.377Z,56.69
2019-02-23T09:26:31.745Z,56.86
2019-02-23T09:29:06.410Z,55.94
2019-02-23T09:31:35.835Z,55.23
2019-02-23T09:34:05.412Z,55.13
2019-02-23T09:36:34.764Z,56.23
2019-02-23T09:39:04.673Z,56.22
2019-02-23T09:41:34.003Z,56.70
2019-02-23T09:44:03.302Z,56.14
2019-02-23T09:46:32.664Z,54.67
2019-02-23T09:49:01.942Z,52.92
2019-02-23T09:51:31.341Z,52.57
2019-02-23T09:54:00.647Z,53.16
2019-02-23T09:56:29.937Z,52.00
2019-02-23T09:58:59.382Z,51.58
2019-02-23T10:01:28.878Z,50.50
2019-02-23T10:03:58.169Z,50.59
2019-02-23T10:06:27.481Z,49.83
2019-02-23T10:08:56.771Z,50.14
2019-02-23T10:11:26.064Z,50.42
2019-02-23T10:13:55.391Z,50.15
2019-02-23T10:16:24.727Z,48.68
2019-02-23T10:18:54.099Z,48.25
2019-02-23T10:21:23.425Z,48.20
2019-02-23T10:23:52.771Z,49.85
2019-02-23T10:26:22.099Z,49.46
2019-02-23T10:28:51.583Z,49.09
2019-02-23T10:31:20.941Z,48.38
2019-02-23T10:33:50.229Z,47.58
2019-02-23T10:36:19.608Z,49.18
2019-02-23T10:38:48.957Z,48.41
2019-02-23T10:41:18.305Z,47.10
2019-02-23T10:43:47.649Z,46.68
2019-02-23T10:46:17.028Z,48.18
2019-02-23T10:48:46.379Z,48.10
2019-02-23T10:51:15.705Z,48.16
2019-02-23T10:53:45.111Z,47.70
2019-02-23T10:56:14.476Z,47.04
2019-02-23T10:58:43.764Z,46.75
2019-02-23T11:01:13.256Z,46.97
2019-02-23T11:03:42.617Z,45.45
2019-02-23T11:06:11.965Z,45.30
2019-02-23T11:08:41.278Z,44.59
2019-02-23T11:11:10.639Z,43.84
2019-02-23T11:13:39.952Z,42.08
2019-02-23T11:16:09.441Z,41.46
2019-02-23T11:18:38.860Z,42.09
2019-02-23T11:21:08.203Z,41.64
2019-02-23T11:23:44.228Z,41.41
2019-02-23T11:26:08.697Z,41.12
2019-02-23T11:28:38.055Z,40.28
2019-02-23T11:31:07.387Z,40.64
2019-02-23T11:33:36.711Z,40.94
2019-02-23T11:36:06.085Z,39.58
2019-02-23T11:38:35.397Z,39.83
2019-02-23T11:41:04.755Z,39.89
2019-02-23T11:43:34.117Z,40.27
2019-02-23T11:46:03.460Z,39.24
2019-02-23T11:48:32.821Z,39.10
2019-02-23T11:51:02.146Z,40.48
2019-02-23T11:53:31.511Z,39.01
2019-02-23T11:56:00.971Z,37.93
2019-02-23T11:58:30.326Z,38.36
2019-02-23T12:00:59.686Z,38.76
2019-02-23T12:03:29.047Z,37.34
2019-02-23T12:05:58.363Z,37.62
2019-02-23T12:08:27.753Z,38.26
2019-02-23T12:10:57.048Z,37.32
2019-02-23T12:13:26.399Z,37.99
2019-02-23T12:15:55.707Z,37.71
2019-02-23T12:18:25.019Z,35.95
2019-02-23T12:20:54.342Z,35.91
2019-02-23T12:23:23.657Z,36.61
2019-02-23T12:25:53.006Z,36.24
2019-02-23T12:28:22.417Z,34.78
2019-02-23T12:30:51.803Z,35.37
2019-02-23T12:33:21.154Z,35.34
2019-02-23T12:35:50.466Z,35.19
2019-02-23T12:38:19.859Z,34.02
2019-02-23T12:40:49.203Z,34.12
2019-02-23T12:43:18.589Z,34.12
2019-02-23T12:45:47.888Z,33.93
2019-02-23T12:48:17.186Z,33.28
2019-02-23T12:50:46.527Z,32.70
2019-02-23T12:53:15.938Z,32.85
2019-02-23T12:55:48.643Z,32.71
2019-02-23T12:58:17.965Z,32.63
2019-02-23T13:00:47.299Z,31.89
2019-02-23T13:03:16.576Z,31.63
2019-02-23T13:05:45.896Z,32.38
2019-02-23T13:08:15.215Z,31.46
2019-02-23T13:10:44.649Z,31.48
2019-02-23T13:13:32.223Z,30.51
2019-02-23T13:16:19.185Z,30.23
2019-02-23T13:19:47.786Z,30.87
2019-02-23T13:22:47.464Z,29.31
2019-02-23T13:25:48.277Z,29.54
2019-02-23T13:28:39.920Z,29.68
2019-02-23T13:31:46.028Z,30.16
2019-02-23T13:35:01.831Z,28.59
2019-02-23T13:37:46.476Z,28.88
2019-02-23T13:40:46.607Z,27.32
2019-02-23T13:43:32.166Z,27.80
2019-02-23T13:46:10.976Z,27.33
2019-02-23T13:49:48.490Z,28.00
2019-02-23T13:52:45.286Z,27.40
2019-02-23T13:55:35.311Z,26.89
2019-02-23T13:58:10.900Z,26.82
2019-02-23T14:01:06.341Z,26.39
2019-02-23T14:04:00.723Z,26.87
2019-02-23T14:07:13.860Z,26.95
2019-02-23T14:10:17.867Z,26.95
2019-02-23T14:13:26.515Z,26.71
2019-02-23T14:16:30.771Z,26.67
2019-02-23T14:19:49.766Z,27.86
2019-02-23T14:22:36.569Z,27.66
2019-02-23T14:26:01.939Z,26.13
2019-02-23T14:28:54.379Z,25.39
2019-02-23T14:31:49.148Z,25.70
2019-02-23T14:34:55.279Z,26.37
2019-02-23T14:38:23.952Z,26.33
2019-02-23T14:41:28.095Z,25.69
2019-02-23T14:44:26.050Z,26.28
2019-02-23T14:47:45.267Z,25.77
2019-02-23T14:50:58.006Z,28.01
2019-02-23T14:54:04.244Z,27.24
2019-02-23T14:57:17.158Z,25.99
2019-02-23T15:00:33.423Z,26.93
2019-02-23T15:03:57.594Z,26.85
2019-02-23T15:06:51.090Z,26.55
2019-02-23T15:10:08.977Z,28.15
2019-02-23T15:13:34.440Z,28.13
2019-02-23T15:16:38.636Z,27.62
2019-02-23T15:20:03.951Z,27.16
2019-02-23T15:22:59.839Z,27.37
2019-02-23T15:26:04.846Z,27.64
2019-02-23T15:29:27.237Z,27.32
2019-02-23T15:32:26.269Z,26.98
2019-02-23T15:35:10.169Z,27.55
2019-02-23T15:38:13.214Z,27.09
2019-02-23T15:41:13.159Z,26.77
2019-02-23T15:44:06.998Z,28.33
2019-02-23T15:47:02.327Z,27.25
2019-02-23T15:49:41.164Z,27.00
2019-02-23T15:52:10.553Z,27.51
2019-02-23T15:54:39.980Z,27.60
2019-02-23T15:57:09.373Z,27.74
2019-02-23T15:59:40.525Z,27.66
2019-02-23T16:02:18.978Z,27.38
2019-02-23T16:04:48.332Z,27.55
2019-02-23T16:07:17.697Z,27.33
2019-02-23T16:09:47.136Z,27.69
2019-02-23T16:12:16.720Z,27.40
2019-02-23T16:14:46.088Z,27.46
2019-02-23T16:17:15.456Z,28.13
2019-02-23T16:19:44.796Z,27.53
2019-02-23T16:37:54.321Z,27.85
2019-02-23T16:40:33.007Z,27.56
2019-02-23T16:43:15.240Z,27.90
2019-02-23T16:45:56.828Z,28.25
2019-02-23T16:50:10.772Z,28.12
2019-02-23T16:52:09.301Z,28.44
2019-02-23T16:55:07.735Z,28.65
2019-02-23T17:04:53.460Z,29.50
2019-02-23T17:10:16.196Z,32.23
2019-02-23T17:13:47.861Z,33.27
2019-02-23T17:16:41.629Z,35.96
2019-02-23T17:19:44.456Z,38.21
2019-02-23T17:22:39.940Z,39.31
2019-02-23T17:25:36.115Z,40.02
2019-02-23T17:28:10.871Z,39.72
2019-02-23T17:36:52.876Z,41.47
2019-02-23T17:39:34.068Z,41.84
2019-02-23T17:42:27.730Z,41.58
2019-02-23T17:45:15.167Z,42.70
2019-02-23T17:48:09.164Z,43.12
2019-02-23T17:51:16.374Z,42.86
2019-02-23T18:03:31.536Z,43.42
2019-02-23T18:06:14.006Z,44.02
2019-02-23T18:09:07.998Z,43.93
2019-02-23T18:11:40.908Z,44.83
2019-02-23T18:14:11.056Z,44.98
2019-02-23T18:16:47.759Z,44.72
2019-02-23T18:19:24.247Z,44.78
2019-02-23T18:21:53.886Z,45.27
2019-02-23T18:24:39.374Z,45.56
2019-02-23T18:27:12.837Z,45.79
2019-02-23T18:29:46.455Z,45.68
2019-02-23T18:32:28.141Z,45.77
2019-02-23T18:35:09.764Z,45.86
2019-02-23T18:37:55.478Z,45.89
2019-02-23T18:40:40.178Z,46.06
2019-02-23T18:43:23.586Z,46.14
2019-02-23T18:46:10.274Z,46.04
2019-02-23T18:48:42.545Z,46.06
2019-02-23T18:51:12.743Z,46.41
2019-02-23T18:54:14.597Z,47.22
2019-02-23T18:56:47.225Z,46.72
2019-02-23T18:59:27.466Z,46.66
2019-02-23T19:02:20.328Z,46.73
2019-02-23T19:04:53.251Z,46.88
2019-02-23T19:07:21.572Z,46.67
2019-02-23T19:09:50.828Z,46.76
2019-02-23T19:12:26.710Z,47.38
2019-02-23T19:15:53.562Z,47.25
2019-02-23T19:19:32.369Z,47.11
2019-02-23T19:22:51.290Z,47.58
2019-02-23T19:26:07.834Z,48.07
2019-02-23T19:29:13.816Z,48.13
2019-02-23T19:32:09.609Z,48.06
2019-02-23T19:34:39.096Z,48.14
2019-02-23T19:37:08.512Z,47.87
2019-02-23T19:39:37.859Z,47.20
2019-02-23T19:42:08.203Z,46.83
2019-02-23T19:44:37.504Z,46.83
2019-02-23T19:47:28.139Z,45.47
2019-02-23T19:50:00.949Z,44.72
2019-02-23T19:52:30.475Z,44.75
2019-02-23T19:54:59.810Z,43.95
2019-02-23T19:57:29.315Z,43.80
2019-02-23T19:59:58.634Z,43.38
2019-02-23T20:02:28.016Z,43.43
2019-02-23T20:04:57.397Z,42.63
2019-02-23T20:07:26.768Z,42.40
2019-02-23T20:09:56.203Z,42.12
2019-02-23T20:12:25.508Z,41.62
2019-02-23T20:14:55.178Z,41.98
2019-02-23T20:17:24.548Z,41.44
2019-02-23T20:19:53.908Z,41.86
2019-02-23T20:22:23.374Z,42.05
2019-02-23T20:24:52.841Z,42.28
2019-02-23T20:27:22.305Z,42.43
2019-02-23T20:29:51.652Z,42.88
2019-02-23T20:32:20.968Z,43.34
2019-02-23T20:34:50.467Z,43.30
2019-02-23T20:37:19.824Z,43.25
2019-02-23T20:39:49.179Z,41.75
2019-02-23T20:42:18.909Z,41.06
2019-02-23T20:44:48.207Z,40.18
2019-02-23T20:47:17.621Z,40.51
2019-02-23T20:49:46.983Z,38.99
2019-02-23T20:52:16.282Z,38.96
2019-02-23T20:54:45.610Z,38.63
2019-02-23T20:57:14.943Z,39.33
2019-02-23T20:59:44.235Z,38.74
2019-02-23T21:02:13.538Z,38.82
2019-02-23T21:04:43.000Z,38.35
2019-02-23T21:07:12.307Z,38.64
2019-02-23T21:09:41.715Z,37.71
2019-02-23T21:12:11.024Z,37.85
2019-02-23T21:14:40.391Z,37.96
2019-02-23T21:17:09.709Z,37.43
2019-02-23T21:19:39.071Z,37.71
2019-02-23T21:22:08.403Z,37.32
2019-02-23T21:24:37.732Z,37.71
2019-02-23T21:27:12.807Z,37.55
2019-02-23T21:29:38.197Z,37.33
2019-02-23T21:32:07.609Z,36.73
2019-02-23T21:34:36.987Z,37.35
2019-02-23T21:37:06.376Z,37.35
2019-02-23T21:39:35.715Z,37.23
2019-02-23T21:42:05.033Z,38.28
2019-02-23T21:44:34.384Z,37.38
2019-02-23T21:47:03.713Z,36.98
2019-02-23T21:49:33.009Z,37.15
2019-02-23T21:52:02.366Z,36.72
2019-02-23T21:54:31.661Z,37.08
2019-02-23T21:57:01.029Z,37.66
2019-02-23T21:59:30.404Z,37.01
2019-02-23T22:01:59.737Z,37.31
2019-02-23T22:04:29.034Z,37.04
2019-02-23T22:06:58.394Z,37.18
2019-02-23T22:09:27.641Z,36.99
2019-02-23T22:11:56.930Z,36.46
2019-02-23T22:14:26.255Z,36.57
2019-02-23T22:16:55.545Z,37.02
2019-02-23T22:19:24.885Z,36.95
2019-02-23T22:21:54.168Z,36.92
2019-02-23T22:24:23.509Z,37.38
2019-02-23T22:26:52.793Z,36.96
2019-02-23T22:29:22.074Z,36.87
2019-02-23T22:31:51.346Z,37.28
2019-02-23T22:34:20.695Z,37.22
2019-02-23T22:36:49.985Z,37.03
2019-02-23T22:39:19.277Z,36.64
2019-02-23T22:41:49.852Z,36.85
2019-02-23T22:44:19.229Z,36.88
2019-02-23T22:46:48.511Z,36.84
2019-02-23T22:49:17.797Z,37.69
2019-02-23T22:51:47.084Z,38.29
2019-02-23T22:54:16.392Z,38.73
2019-02-23T22:56:45.656Z,38.71
2019-02-23T22:59:14.959Z,38.32
2019-02-23T23:01:44.422Z,37.92
2019-02-23T23:04:13.740Z,37.78
2019-02-23T23:06:43.012Z,39.09
2019-02-23T23:09:19.550Z,38.19
2019-02-23T23:11:48.841Z,39.52
2019-02-23T23:14:18.158Z,40.49
2019-02-23T23:16:47.438Z,40.10
2019-02-23T23:19:16.784Z,39.84
2019-02-23T23:21:46.060Z,38.51
2019-02-23T23:24:15.325Z,39.01
2019-02-23T23:26:44.599Z,38.93
2019-02-23T23:29:13.897Z,40.45
2019-02-23T23:31:43.195Z,40.34
2019-02-23T23:34:12.477Z,40.51
2019-02-23T23:36:41.778Z,39.61
2019-02-23T23:39:11.013Z,38.86
2019-02-23T23:41:40.270Z,39.46
2019-02-23T23:44:09.531Z,39.43
2019-02-23T23:46:38.795Z,39.69
2019-02-23T23:49:08.048Z,40.85
2019-02-23T23:51:37.322Z,39.88
2019-02-23T23:54:06.616Z,38.91
2019-02-23T23:56:35.880Z,38.80
2019-02-23T23:59:05.134Z,38.30
